METAR Data
IDs: Format: Raw Decoded Include TAF

Data at: 0012 UTC 30 May 2020

METAR for:K6B9 (Skaneateles Arpt, NY, US)
Text:K6B9 292355Z AUTO 24005G11KT 9SM -DZ FEW026 SCT050 BKN095 19/17 A2983 RMK AO2 P0013
Temperature: 19.0°C ( 66°F)
Dewpoint: 17.0°C ( 63°F) [RH = 88%]
Pressure (altimeter):29.83 inches Hg (1010.2 mb)
Winds:from the WSW (240 degrees) at 6 MPH (5 knots; 2.6 m/s) gusting to 13 MPH (11 knots; 5.7 m/s)
Visibility: 9 sm ( 14 km)
Ceiling:9500 feet AGL
Clouds: few clouds at 2600 feet AGL, scattered clouds at 5000 feet AGL, broken clouds at 9500 feet AGL
Weather:-DZ (light drizzle)
QC Flag:automated observation with no human augmentation
Text:K6B9 292335Z AUTO 26019G30KT 240V300 3SM -DZ BKN027 BKN037 OVC055 20/19 A2984 RMK AO2
Temperature: 20.0°C ( 68°F)
Dewpoint: 19.0°C ( 66°F) [RH = 94%]
Pressure (altimeter):29.84 inches Hg (1010.6 mb)
Winds:from the W (260 degrees) at 22 MPH (19 knots; 9.8 m/s) gusting to 34 MPH (30 knots; 15.4 m/s)
Visibility: 3 sm ( 5 km)
Ceiling:2700 feet AGL
Clouds: broken clouds at 2700 feet AGL, broken clouds at 3700 feet AGL, overcast cloud deck at 5500 feet AGL
Weather:-DZ (light drizzle)
QC Flag:automated observation with no human augmentation
Text:K6B9 292215Z AUTO 00000KT 10SM SCT075 BKN090 SCT120 21/20 A2980 RMK AO2
Temperature: 21.0°C ( 70°F)
Dewpoint: 20.0°C ( 68°F) [RH = 94%]
Pressure (altimeter):29.80 inches Hg (1009.2 mb)
Winds:calm
Visibility:10 or more sm (16+ km)
Ceiling:9000 feet AGL
Clouds: scattered clouds at 7500 feet AGL, broken clouds at 9000 feet AGL, scattered clouds at 12000 feet AGL
QC Flag:automated observation with no human augmentation
Text:K6B9 292155Z AUTO 00000KT 10SM FEW065 FEW080 FEW120 21/20 A2980 RMK AO2
Temperature: 21.0°C ( 70°F)
Dewpoint: 20.0°C ( 68°F) [RH = 94%]
Pressure (altimeter):29.80 inches Hg (1009.2 mb)
Winds:calm
Visibility:10 or more sm (16+ km)
Ceiling:at least 12,000 feet AGL
Clouds: few clouds at 6500 feet AGL, few clouds at 8000 feet AGL, few clouds at 12000 feet AGL
QC Flag:automated observation with no human augmentation
Text:K6B9 292135Z AUTO 00000KT 10SM SCT120 22/20 A2979 RMK AO2
Temperature: 22.0°C ( 72°F)
Dewpoint: 20.0°C ( 68°F) [RH = 88%]
Pressure (altimeter):29.79 inches Hg (1008.9 mb)
Winds:calm
Visibility:10 or more sm (16+ km)
Ceiling:at least 12,000 feet AGL
Clouds: scattered clouds at 12000 feet AGL
QC Flag:automated observation with no human augmentation
Text:K6B9 292115Z AUTO 00000KT 10SM FEW080 SCT110 21/20 A2980 RMK AO2
Temperature: 21.0°C ( 70°F)
Dewpoint: 20.0°C ( 68°F) [RH = 94%]
Pressure (altimeter):29.80 inches Hg (1009.2 mb)
Winds:calm
Visibility:10 or more sm (16+ km)
Ceiling:at least 12,000 feet AGL
Clouds: few clouds at 8000 feet AGL, scattered clouds at 11000 feet AGL
QC Flag:automated observation with no human augmentation
Text:K6B9 292055Z AUTO 30003KT 10SM FEW060 FEW070 SCT080 21/20 A2979 RMK AO2 P0032
Temperature: 21.0°C ( 70°F)
Dewpoint: 20.0°C ( 68°F) [RH = 94%]
Pressure (altimeter):29.79 inches Hg (1008.9 mb)
Winds:from the WNW (300 degrees) at 3 MPH (3 knots; 1.5 m/s)
Visibility:10 or more sm (16+ km)
Ceiling:at least 12,000 feet AGL
Clouds: few clouds at 6000 feet AGL, few clouds at 7000 feet AGL, scattered clouds at 8000 feet AGL
QC Flag:automated observation with no human augmentation
Text:K6B9 292035Z AUTO 22004KT 8SM -DZ FEW003 FEW026 SCT055 20/20 A2980 RMK AO2
Temperature: 20.0°C ( 68°F)
Dewpoint: 20.0°C ( 68°F) [RH = 100%]
Pressure (altimeter):29.80 inches Hg (1009.2 mb)
Winds:from the SW (220 degrees) at 5 MPH (4 knots; 2.1 m/s)
Visibility: 8 sm ( 13 km)
Ceiling:at least 12,000 feet AGL
Clouds: few clouds at 300 feet AGL, few clouds at 2600 feet AGL, scattered clouds at 5500 feet AGL
Weather:-DZ (light drizzle)
QC Flag:automated observation with no human augmentation
Text:K6B9 292015Z AUTO VRB06G18KT 1/2SM RA BKN003 BKN029 OVC038 20/19 A2983 RMK AO2
Temperature: 20.0°C ( 68°F)
Dewpoint: 19.0°C ( 66°F) [RH = 94%]
Pressure (altimeter):29.83 inches Hg (1010.2 mb)
Winds:variable direction winds at 7 MPH (6 knots; 3.1 m/s) gusting to 21 MPH (18 knots; 9.3 m/s)
Visibility: 0.50 sm ( 0.80 km)
Ceiling:300 feet AGL
Clouds: broken clouds at 300 feet AGL, broken clouds at 2900 feet AGL, overcast cloud deck at 3800 feet AGL
Weather:RA (moderate rain)
QC Flag:automated observation with no human augmentation
Text:K6B9 291955Z AUTO VRB05G12KT 10SM BKN050 BKN065 BKN110 27/18 A2979 RMK AO2
Temperature: 27.0°C ( 81°F)
Dewpoint: 18.0°C ( 64°F) [RH = 58%]
Pressure (altimeter):29.79 inches Hg (1008.9 mb)
Winds:variable direction winds at 6 MPH (5 knots; 2.6 m/s) gusting to 14 MPH (12 knots; 6.2 m/s)
Visibility:10 or more sm (16+ km)
Ceiling:5000 feet AGL
Clouds: broken clouds at 5000 feet AGL, broken clouds at 6500 feet AGL, broken clouds at 11000 feet AGL
QC Flag:automated observation with no human augmentation
Text:K6B9 291935Z AUTO 20007G14KT 170V240 10SM FEW050 FEW055 SCT120 28/18 A2978 RMK AO2
Temperature: 28.0°C ( 82°F)
Dewpoint: 18.0°C ( 64°F) [RH = 55%]
Pressure (altimeter):29.78 inches Hg (1008.5 mb)
Winds:from the SSW (200 degrees) at 8 MPH (7 knots; 3.6 m/s) gusting to 16 MPH (14 knots; 7.2 m/s)
Visibility:10 or more sm (16+ km)
Ceiling:at least 12,000 feet AGL
Clouds: few clouds at 5000 feet AGL, few clouds at 5500 feet AGL, scattered clouds at 12000 feet AGL
QC Flag:automated observation with no human augmentation
Text:K6B9 291915Z AUTO 19008G16KT 150V230 10SM SCT110 29/19 A2979 RMK AO2
Temperature: 29.0°C ( 84°F)
Dewpoint: 19.0°C ( 66°F) [RH = 55%]
Pressure (altimeter):29.79 inches Hg (1008.9 mb)
Winds:from the S (190 degrees) at 9 MPH (8 knots; 4.1 m/s) gusting to 18 MPH (16 knots; 8.2 m/s)
Visibility:10 or more sm (16+ km)
Ceiling:at least 12,000 feet AGL
Clouds: scattered clouds at 11000 feet AGL
QC Flag:automated observation with no human augmentation
Text:K6B9 291855Z AUTO 21008G15KT 170V230 10SM BKN110 28/18 A2979 RMK AO2
Temperature: 28.0°C ( 82°F)
Dewpoint: 18.0°C ( 64°F) [RH = 55%]
Pressure (altimeter):29.79 inches Hg (1008.9 mb)
Winds:from the SSW (210 degrees) at 9 MPH (8 knots; 4.1 m/s) gusting to 17 MPH (15 knots; 7.7 m/s)
Visibility:10 or more sm (16+ km)
Ceiling:11000 feet AGL
Clouds: broken clouds at 11000 feet AGL
QC Flag:automated observation with no human augmentation
Text:K6B9 291835Z AUTO 21014G20KT 10SM CLR 29/18 A2980 RMK AO2
Temperature: 29.0°C ( 84°F)
Dewpoint: 18.0°C ( 64°F) [RH = 52%]
Pressure (altimeter):29.80 inches Hg (1009.2 mb)
Winds:from the SSW (210 degrees) at 16 MPH (14 knots; 7.2 m/s) gusting to 23 MPH (20 knots; 10.3 m/s)
Visibility:10 or more sm (16+ km)
Ceiling:at least 12,000 feet AGL
Clouds:sky clear below 12,000 feet AGL
QC Flag:automated observation with no human augmentation
Text:K6B9 291715Z AUTO 22007KT 10SM FEW040 FEW050 SCT065 28/20 A2983 RMK AO2
Temperature: 28.0°C ( 82°F)
Dewpoint: 20.0°C ( 68°F) [RH = 62%]
Pressure (altimeter):29.83 inches Hg (1010.2 mb)
Winds:from the SW (220 degrees) at 8 MPH (7 knots; 3.6 m/s)
Visibility:10 or more sm (16+ km)
Ceiling:at least 12,000 feet AGL
Clouds: few clouds at 4000 feet AGL, few clouds at 5000 feet AGL, scattered clouds at 6500 feet AGL
QC Flag:automated observation with no human augmentation
Text:K6B9 291655Z AUTO 23008G14KT 10SM CLR 28/20 A2985 RMK AO2
Temperature: 28.0°C ( 82°F)
Dewpoint: 20.0°C ( 68°F) [RH = 62%]
Pressure (altimeter):29.85 inches Hg (1010.9 mb)
Winds:from the SW (230 degrees) at 9 MPH (8 knots; 4.1 m/s) gusting to 16 MPH (14 knots; 7.2 m/s)
Visibility:10 or more sm (16+ km)
Ceiling:at least 12,000 feet AGL
Clouds:sky clear below 12,000 feet AGL
QC Flag:automated observation with no human augmentation
Text:K6B9 291635Z AUTO 22008G14KT 160V240 10SM FEW090 27/20 A2986 RMK AO2
Temperature: 27.0°C ( 81°F)
Dewpoint: 20.0°C ( 68°F) [RH = 66%]
Pressure (altimeter):29.86 inches Hg (1011.3 mb)
Winds:from the SW (220 degrees) at 9 MPH (8 knots; 4.1 m/s) gusting to 16 MPH (14 knots; 7.2 m/s)
Visibility:10 or more sm (16+ km)
Ceiling:at least 12,000 feet AGL
Clouds: few clouds at 9000 feet AGL
QC Flag:automated observation with no human augmentation
Text:K6B9 291615Z AUTO 22010G16KT 190V250 10SM CLR 27/20 A2988 RMK AO2
Temperature: 27.0°C ( 81°F)
Dewpoint: 20.0°C ( 68°F) [RH = 66%]
Pressure (altimeter):29.88 inches Hg (1011.9 mb)
Winds:from the SW (220 degrees) at 12 MPH (10 knots; 5.1 m/s) gusting to 18 MPH (16 knots; 8.2 m/s)
Visibility:10 or more sm (16+ km)
Ceiling:at least 12,000 feet AGL
Clouds:sky clear below 12,000 feet AGL
QC Flag:automated observation with no human augmentation
Text:K6B9 291555Z AUTO 22009G16KT 190V260 10SM FEW065 FEW075 FEW090 26/20 A2989 RMK AO2
Temperature: 26.0°C ( 79°F)
Dewpoint: 20.0°C ( 68°F) [RH = 70%]
Pressure (altimeter):29.89 inches Hg (1012.3 mb)
Winds:from the SW (220 degrees) at 10 MPH (9 knots; 4.6 m/s) gusting to 18 MPH (16 knots; 8.2 m/s)
Visibility:10 or more sm (16+ km)
Ceiling:at least 12,000 feet AGL
Clouds: few clouds at 6500 feet AGL, few clouds at 7500 feet AGL, few clouds at 9000 feet AGL
QC Flag:automated observation with no human augmentation
Text:K6B9 291535Z AUTO 22009KT 170V230 10SM SCT075 BKN090 BKN120 25/21 A2990 RMK AO2
Temperature: 25.0°C ( 77°F)
Dewpoint: 21.0°C ( 70°F) [RH = 79%]
Pressure (altimeter):29.90 inches Hg (1012.6 mb)
Winds:from the SW (220 degrees) at 10 MPH (9 knots; 4.6 m/s)
Visibility:10 or more sm (16+ km)
Ceiling:9000 feet AGL
Clouds: scattered clouds at 7500 feet AGL, broken clouds at 9000 feet AGL, broken clouds at 12000 feet AGL
QC Flag:automated observation with no human augmentation
Text:K6B9 291515Z AUTO 22008KT 170V250 10SM FEW060 BKN075 BKN085 25/21 A2991 RMK AO2
Temperature: 25.0°C ( 77°F)
Dewpoint: 21.0°C ( 70°F) [RH = 79%]
Pressure (altimeter):29.91 inches Hg (1013.0 mb)
Winds:from the SW (220 degrees) at 9 MPH (8 knots; 4.1 m/s)
Visibility:10 or more sm (16+ km)
Ceiling:7500 feet AGL
Clouds: few clouds at 6000 feet AGL, broken clouds at 7500 feet AGL, broken clouds at 8500 feet AGL
QC Flag:automated observation with no human augmentation
Text:K6B9 291455Z AUTO VRB06KT 10SM SCT042 BKN060 OVC090 24/21 A2991 RMK AO2
Temperature: 24.0°C ( 75°F)
Dewpoint: 21.0°C ( 70°F) [RH = 83%]
Pressure (altimeter):29.91 inches Hg (1013.0 mb)
Winds:variable direction winds at 7 MPH (6 knots; 3.1 m/s)
Visibility:10 or more sm (16+ km)
Ceiling:6000 feet AGL
Clouds: scattered clouds at 4200 feet AGL, broken clouds at 6000 feet AGL, overcast cloud deck at 9000 feet AGL
QC Flag:automated observation with no human augmentation
Text:K6B9 291435Z AUTO 22010KT 10SM FEW020 BKN041 OVC050 24/20 A2992 RMK AO2
Temperature: 24.0°C ( 75°F)
Dewpoint: 20.0°C ( 68°F) [RH = 78%]
Pressure (altimeter):29.92 inches Hg (1013.3 mb)
Winds:from the SW (220 degrees) at 12 MPH (10 knots; 5.1 m/s)
Visibility:10 or more sm (16+ km)
Ceiling:4100 feet AGL
Clouds: few clouds at 2000 feet AGL, broken clouds at 4100 feet AGL, overcast cloud deck at 5000 feet AGL
QC Flag:automated observation with no human augmentation
Text:K6B9 291415Z AUTO VRB05G11KT 10SM SCT043 BKN050 BKN065 24/21 A2992 RMK AO2
Temperature: 24.0°C ( 75°F)
Dewpoint: 21.0°C ( 70°F) [RH = 83%]
Pressure (altimeter):29.92 inches Hg (1013.3 mb)
Winds:variable direction winds at 6 MPH (5 knots; 2.6 m/s) gusting to 13 MPH (11 knots; 5.7 m/s)
Visibility:10 or more sm (16+ km)
Ceiling:5000 feet AGL
Clouds: scattered clouds at 4300 feet AGL, broken clouds at 5000 feet AGL, broken clouds at 6500 feet AGL
QC Flag:automated observation with no human augmentation
Text:K6B9 291355Z AUTO VRB06KT 10SM FEW042 BKN055 BKN065 25/21 A2992 RMK AO2
Temperature: 25.0°C ( 77°F)
Dewpoint: 21.0°C ( 70°F) [RH = 79%]
Pressure (altimeter):29.92 inches Hg (1013.3 mb)
Winds:variable direction winds at 7 MPH (6 knots; 3.1 m/s)
Visibility:10 or more sm (16+ km)
Ceiling:5500 feet AGL
Clouds: few clouds at 4200 feet AGL, broken clouds at 5500 feet AGL, broken clouds at 6500 feet AGL
QC Flag:automated observation with no human augmentation
Text:K6B9 291235Z AUTO VRB05G10KT 10SM SCT100 24/21 A2994 RMK AO2
Temperature: 24.0°C ( 75°F)
Dewpoint: 21.0°C ( 70°F) [RH = 83%]
Pressure (altimeter):29.94 inches Hg (1014.0 mb)
Winds:variable direction winds at 6 MPH (5 knots; 2.6 m/s) gusting to 12 MPH (10 knots; 5.1 m/s)
Visibility:10 or more sm (16+ km)
Ceiling:at least 12,000 feet AGL
Clouds: scattered clouds at 10000 feet AGL
QC Flag:automated observation with no human augmentation
Text:K6B9 291215Z AUTO VRB05G14KT 10SM CLR 24/21 A2994 RMK AO2
Temperature: 24.0°C ( 75°F)
Dewpoint: 21.0°C ( 70°F) [RH = 83%]
Pressure (altimeter):29.94 inches Hg (1014.0 mb)
Winds:variable direction winds at 6 MPH (5 knots; 2.6 m/s) gusting to 16 MPH (14 knots; 7.2 m/s)
Visibility:10 or more sm (16+ km)
Ceiling:at least 12,000 feet AGL
Clouds:sky clear below 12,000 feet AGL
QC Flag:automated observation with no human augmentation